Time;durP1;ratioP1;P1;durP2;ratioP2;P2;SDS_P1;SDS_P2;PMS_P1;PMS_P2;Temp;Humidity;BMP_temperature;BMP_pressure;BME280_temperature;BME280_humidity;BME280_pressure;Samples;Min_cycle;Max_cycle;Signal;HPM_P1;HPM_P2
2022/01/16 00:00:19;;;;;;;32.50;19.20;;;2.90;99.90;;;;;;5015196;28;20200;-69
2022/01/16 00:05:32;;;;;;;33.47;18.50;;;2.90;99.90;;;;;;5015276;28;20203;-69
2022/01/16 00:07:59;;;;;;;36.58;19.83;;;2.90;99.90;;;;;;5015249;28;20288;-69
2022/01/16 00:10:27;;;;;;;31.90;19.60;;;3.00;99.90;;;;;;5015109;28;20215;-69
2022/01/16 00:12:58;;;;;;;30.85;19.55;;;3.00;99.90;;;;;;5014855;28;20586;-69
2022/01/16 00:15:27;;;;;;;31.70;19.05;;;2.90;99.90;;;;;;5015190;28;20190;-69
2022/01/16 00:17:57;;;;;;;37.83;20.23;;;3.00;99.90;;;;;;5015020;28;20295;-69
2022/01/16 00:20:25;;;;;;;34.15;19.70;;;2.80;99.90;;;;;;5014872;28;20300;-69
2022/01/16 00:22:53;;;;;;;36.03;20.42;;;2.90;99.90;;;;;;5015267;28;20220;-69
2022/01/16 00:25:20;;;;;;;34.25;19.65;;;2.90;99.90;;;;;;5014940;28;20213;-69
2022/01/16 00:27:47;;;;;;;37.65;21.20;;;2.90;99.90;;;;;;5014829;28;20737;-69
2022/01/16 00:30:15;;;;;;;39.38;22.52;;;2.70;99.90;;;;;;5014669;28;20211;-69
2022/01/16 00:32:43;;;;;;;40.67;23.15;;;2.70;99.90;;;;;;5014765;28;20226;-69
2022/01/16 00:35:11;;;;;;;38.78;21.73;;;2.70;99.90;;;;;;5014707;28;20205;-69
2022/01/16 00:37:38;;;;;;;33.42;19.88;;;2.70;99.90;;;;;;5015089;28;20201;-69
2022/01/16 00:40:07;;;;;;;36.60;21.65;;;2.80;99.90;;;;;;5014397;28;20208;-69
2022/01/16 00:42:34;;;;;;;37.20;22.63;;;2.80;99.90;;;;;;5014298;28;20236;-69
2022/01/16 00:45:00;;;;;;;40.63;23.65;;;2.80;99.90;;;;;;5014663;28;20228;-69
2022/01/16 00:47:27;;;;;;;40.35;23.08;;;2.90;99.90;;;;;;5014634;28;20299;-69
2022/01/16 00:49:55;;;;;;;36.40;21.63;;;2.90;99.90;;;;;;5014422;28;20207;-69
2022/01/16 00:52:22;;;;;;;39.65;22.63;;;3.00;99.90;;;;;;5014437;28;20316;-69
2022/01/16 00:54:49;;;;;;;38.00;23.15;;;3.00;99.90;;;;;;5014516;28;20201;-69
2022/01/16 00:57:16;;;;;;;35.58;20.92;;;3.00;99.90;;;;;;5014536;28;20544;-69
2022/01/16 00:59:43;;;;;;;37.63;22.20;;;3.00;99.90;;;;;;5014266;28;20295;-69
2022/01/16 01:02:09;;;;;;;36.63;21.92;;;3.00;99.90;;;;;;5013301;28;20319;-69
2022/01/16 01:04:36;;;;;;;37.97;21.70;;;3.00;99.90;;;;;;5014409;28;20388;-69
2022/01/16 01:07:05;;;;;;;40.80;24.05;;;3.00;99.90;;;;;;5014542;28;20292;-69
2022/01/16 01:09:31;;;;;;;36.15;21.83;;;3.00;99.90;;;;;;5014278;28;20298;-69
2022/01/16 01:11:58;;;;;;;34.35;21.52;;;3.00;99.90;;;;;;5014189;28;20278;-69
2022/01/16 01:14:37;;;;;;;40.58;22.77;;;3.00;99.90;;;;;;5014108;28;20651;-69
2022/01/16 01:17:04;;;;;;;35.45;21.05;;;3.00;99.90;;;;;;5014187;28;20629;-69
2022/01/16 01:19:34;;;;;;;40.15;20.55;;;3.00;99.90;;;;;;5014319;28;20201;-69
2022/01/16 01:22:01;;;;;;;33.63;20.90;;;2.90;99.90;;;;;;5013680;28;20225;-69
2022/01/16 01:24:31;;;;;;;38.03;21.95;;;2.90;99.90;;;;;;5014086;28;20225;-69
2022/01/16 01:27:04;;;;;;;34.90;21.13;;;2.90;99.90;;;;;;5014194;28;20663;-69
2022/01/16 01:29:31;;;;;;;38.03;21.38;;;2.90;99.90;;;;;;5014283;28;20244;-69
2022/01/16 01:31:58;;;;;;;39.42;21.50;;;2.80;99.90;;;;;;5013902;28;20225;-69
2022/01/16 01:34:25;;;;;;;37.20;21.63;;;2.80;99.90;;;;;;5014096;28;20630;-69
2022/01/16 01:36:52;;;;;;;36.47;20.38;;;2.70;99.90;;;;;;5014010;28;20205;-69
2022/01/16 01:39:20;;;;;;;37.55;21.27;;;2.70;99.90;;;;;;5013851;28;20689;-69
2022/01/16 01:41:52;;;;;;;39.17;21.88;;;2.60;99.90;;;;;;5013632;28;20232;-69
2022/01/16 01:52:32;;;;;;;36.83;20.90;;;2.70;99.90;;;;;;5013882;28;20279;-69
2022/01/16 01:54:59;;;;;;;40.60;21.52;;;2.80;99.90;;;;;;5013941;28;20197;-69
2022/01/16 01:57:27;;;;;;;36.45;20.48;;;2.80;99.90;;;;;;5013706;28;20200;-69
2022/01/16 01:59:54;;;;;;;33.53;21.85;;;2.70;99.90;;;;;;5013846;28;20209;-69
2022/01/16 02:02:22;;;;;;;35.85;21.63;;;2.80;99.90;;;;;;5013689;28;20228;-69
2022/01/16 02:04:49;;;;;;;36.42;22.48;;;2.80;99.90;;;;;;5013837;28;20248;-69
2022/01/16 02:07:16;;;;;;;39.55;22.10;;;2.80;99.90;;;;;;5014144;28;20201;-69
2022/01/16 02:09:43;;;;;;;38.60;23.10;;;2.80;99.90;;;;;;5013566;28;20208;-69
2022/01/16 02:12:11;;;;;;;42.30;23.08;;;2.60;99.90;;;;;;5013485;28;20231;-69
2022/01/16 02:14:54;;;;;;;42.65;23.13;;;2.40;99.90;;;;;;5016592;28;20236;-69
2022/01/16 02:28:23;;;;;;;40.08;24.88;;;2.40;99.90;;;;;;4994795;28;20204;-69
2022/01/16 02:31:14;;;;;;;40.65;23.77;;;2.50;99.90;;;;;;5017275;28;20209;-68
2022/01/16 02:36:33;;;;;;;37.20;22.88;;;2.60;99.90;;;;;;5017107;28;20342;-69
2022/01/16 02:39:06;;;;;;;44.92;24.45;;;2.70;99.90;;;;;;5016851;28;20255;-69
2022/01/16 02:41:33;;;;;;;40.70;22.40;;;2.70;99.90;;;;;;5016384;28;20251;-69
2022/01/16 02:44:01;;;;;;;40.45;23.25;;;2.70;99.90;;;;;;5016865;28;20213;-69
2022/01/16 02:46:37;;;;;;;38.88;24.00;;;2.70;99.90;;;;;;5016796;28;20304;-69
2022/01/16 02:49:04;;;;;;;40.25;22.75;;;2.70;99.90;;;;;;5016824;28;20299;-69
2022/01/16 02:51:31;;;;;;;39.17;23.45;;;2.70;99.90;;;;;;5016291;28;20219;-69
2022/01/16 02:53:58;;;;;;;40.13;22.70;;;2.70;99.90;;;;;;5016780;28;20296;-69
2022/01/16 02:56:26;;;;;;;39.28;23.27;;;2.70;99.90;;;;;;5016547;28;20300;-69
2022/01/16 02:58:53;;;;;;;37.75;22.15;;;2.80;99.90;;;;;;5016525;28;20211;-69
2022/01/16 03:01:20;;;;;;;40.45;23.00;;;2.90;99.90;;;;;;5016400;28;20201;-69
2022/01/16 03:03:47;;;;;;;43.70;24.48;;;2.90;99.90;;;;;;5016353;28;20311;-69
2022/01/16 03:06:14;;;;;;;36.42;22.52;;;2.90;99.90;;;;;;5016455;28;20201;-69
2022/01/16 03:08:40;;;;;;;41.67;23.17;;;2.90;99.90;;;;;;5016406;28;20276;-69
2022/01/16 03:11:18;;;;;;;40.03;23.80;;;2.90;99.90;;;;;;5015943;28;20689;-69
2022/01/16 03:13:49;;;;;;;39.75;22.55;;;3.00;99.90;;;;;;5016377;28;20315;-69
2022/01/16 03:16:16;;;;;;;39.55;23.80;;;3.00;99.90;;;;;;5016219;28;20747;-69
2022/01/16 03:24:12;;;;;;;40.00;22.95;;;2.80;99.90;;;;;;5015775;28;20219;-69
2022/01/16 03:26:39;;;;;;;39.70;24.13;;;2.80;99.90;;;;;;5015453;28;20200;-69
2022/01/16 03:29:07;;;;;;;41.60;23.58;;;2.90;99.90;;;;;;5015942;28;20204;-69
2022/01/16 03:31:34;;;;;;;40.88;23.65;;;3.00;99.90;;;;;;5015440;28;20211;-69
2022/01/16 03:34:01;;;;;;;33.22;21.70;;;3.00;99.90;;;;;;5015839;28;20205;-69
2022/01/16 03:36:28;;;;;;;40.83;23.90;;;3.00;99.90;;;;;;5015856;28;20200;-69
2022/01/16 03:38:55;;;;;;;36.65;22.73;;;3.00;99.90;;;;;;5015766;28;20666;-69
2022/01/16 03:41:22;;;;;;;42.72;24.77;;;2.90;99.90;;;;;;5015291;28;20299;-69
2022/01/16 03:43:49;;;;;;;41.28;24.35;;;2.90;99.90;;;;;;5015682;28;20193;-69
2022/01/16 03:46:17;;;;;;;39.25;23.25;;;3.00;99.90;;;;;;5015897;28;20240;-69
2022/01/16 03:48:43;;;;;;;37.40;22.55;;;3.00;99.90;;;;;;5015848;28;20292;-69
2022/01/16 03:51:10;;;;;;;38.13;23.13;;;2.90;99.90;;;;;;5015799;28;20300;-69
2022/01/16 03:53:37;;;;;;;38.30;23.13;;;2.90;99.90;;;;;;5015540;28;20275;-69
2022/01/16 03:56:04;;;;;;;37.38;23.60;;;2.90;99.90;;;;;;5015681;28;20283;-69
2022/01/16 03:58:31;;;;;;;36.80;23.52;;;2.80;99.90;;;;;;5015809;28;20211;-69
2022/01/16 04:00:58;;;;;;;35.78;22.55;;;2.70;99.90;;;;;;5015353;28;20216;-69
2022/01/16 04:03:26;;;;;;;34.22;23.65;;;2.70;99.90;;;;;;5015894;28;20570;-69
2022/01/16 04:05:53;;;;;;;35.78;22.08;;;2.60;99.90;;;;;;5015509;28;20233;-69
2022/01/16 04:08:20;;;;;;;37.22;23.75;;;2.60;99.90;;;;;;5015617;28;20235;-69
2022/01/16 04:10:47;;;;;;;34.95;23.95;;;2.60;99.90;;;;;;5015065;28;20201;-69
2022/01/16 04:13:15;;;;;;;35.35;21.90;;;2.60;99.90;;;;;;5015608;28;20582;-69
2022/01/16 04:15:43;;;;;;;38.17;25.30;;;2.70;99.90;;;;;;5015474;28;20205;-69
2022/01/16 04:18:09;;;;;;;41.95;23.27;;;2.60;99.90;;;;;;5015387;28;20205;-69
2022/01/16 04:20:38;;;;;;;38.65;22.90;;;2.60;99.90;;;;;;5014867;28;20201;-69
2022/01/16 04:23:05;;;;;;;39.70;22.67;;;2.60;99.90;;;;;;5015175;28;20315;-69
2022/01/16 04:25:32;;;;;;;36.70;22.40;;;2.70;99.90;;;;;;5015160;28;20229;-69
2022/01/16 04:27:59;;;;;;;40.90;23.38;;;2.70;99.90;;;;;;5015221;28;20215;-69
2022/01/16 04:30:26;;;;;;;38.75;23.88;;;2.70;99.90;;;;;;5014913;28;20311;-69
2022/01/16 04:32:53;;;;;;;42.60;25.42;;;2.60;99.90;;;;;;5014583;28;20710;-69
2022/01/16 04:35:20;;;;;;;41.35;24.00;;;2.40;99.90;;;;;;5014744;28;20200;-69
2022/01/16 04:37:49;;;;;;;41.35;25.38;;;2.50;99.90;;;;;;5014397;28;20211;-69
2022/01/16 04:40:17;;;;;;;42.08;24.65;;;2.40;99.90;;;;;;5014689;28;20252;-69
2022/01/16 04:45:28;;;;;;;41.65;24.73;;;2.20;99.90;;;;;;5014765;28;20228;-69
2022/01/16 04:47:55;;;;;;;49.15;26.73;;;2.10;99.90;;;;;;5014741;28;20200;-69
2022/01/16 04:50:25;;;;;;;43.22;25.10;;;1.90;99.90;;;;;;5014236;28;20213;-68
2022/01/16 04:52:53;;;;;;;39.33;24.75;;;2.10;99.90;;;;;;5014308;28;20758;-69
2022/01/16 04:55:23;;;;;;;40.90;24.75;;;2.00;99.90;;;;;;5014524;28;20212;-69
2022/01/16 04:57:50;;;;;;;38.03;23.50;;;2.10;99.90;;;;;;5014489;28;20296;-69
2022/01/16 05:00:17;;;;;;;39.42;22.45;;;2.10;99.90;;;;;;5014149;28;20204;-69
2022/01/16 05:02:44;;;;;;;37.72;22.77;;;2.20;99.90;;;;;;5014300;28;20319;-69
2022/01/16 05:05:12;;;;;;;38.80;23.60;;;2.20;99.90;;;;;;5014263;28;20316;-69
2022/01/16 05:07:38;;;;;;;39.63;22.77;;;2.30;99.90;;;;;;5014356;28;20208;-69
2022/01/16 05:10:08;;;;;;;39.17;24.17;;;2.30;99.90;;;;;;5013841;28;20213;-69
2022/01/16 05:12:37;;;;;;;36.45;22.45;;;2.30;99.90;;;;;;5014062;28;20728;-69
2022/01/16 05:17:50;;;;;;;35.83;22.52;;;2.30;99.90;;;;;;5014236;28;20669;-68
2022/01/16 05:20:17;;;;;;;33.75;22.98;;;2.30;99.90;;;;;;5013846;28;20211;-69
2022/01/16 05:22:44;;;;;;;36.25;23.25;;;2.30;99.90;;;;;;5014047;28;20588;-69
2022/01/16 05:25:15;;;;;;;35.42;21.92;;;2.40;99.90;;;;;;5014046;28;20311;-69
2022/01/16 05:27:42;;;;;;;37.83;23.40;;;2.40;99.90;;;;;;5013943;28;20208;-69
2022/01/16 05:30:09;;;;;;;32.45;22.33;;;2.40;99.90;;;;;;5013775;28;20213;-68
2022/01/16 05:32:36;;;;;;;38.90;24.20;;;2.40;99.90;;;;;;5013946;28;20221;-68
2022/01/16 05:35:04;;;;;;;38.30;23.40;;;2.30;99.90;;;;;;5013793;28;20208;-69
2022/01/16 05:37:31;;;;;;;40.83;25.58;;;2.20;99.90;;;;;;5013892;28;20300;-69
2022/01/16 05:39:58;;;;;;;35.63;23.15;;;2.30;99.90;;;;;;5013781;28;20299;-69
2022/01/16 05:42:26;;;;;;;32.05;21.58;;;2.30;99.90;;;;;;5013565;28;20232;-69
2022/01/16 05:44:53;;;;;;;35.15;22.63;;;2.30;99.90;;;;;;5013790;28;20243;-69
2022/01/16 05:47:20;;;;;;;42.53;23.98;;;2.40;99.90;;;;;;5013855;28;20303;-69
2022/01/16 05:49:46;;;;;;;36.83;22.00;;;2.40;99.90;;;;;;5016879;28;20210;-69
2022/01/16 05:52:13;;;;;;;36.25;23.88;;;2.40;99.90;;;;;;5017703;28;20644;-69
2022/01/16 05:54:40;;;;;;;34.45;23.08;;;2.40;99.90;;;;;;5017879;28;20299;-69
2022/01/16 05:57:07;;;;;;;36.25;21.88;;;2.40;99.90;;;;;;5017718;28;20584;-69
2022/01/16 05:59:35;;;;;;;33.50;22.17;;;2.40;99.90;;;;;;5017735;28;20295;-69
2022/01/16 06:02:03;;;;;;;30.95;22.05;;;2.40;99.90;;;;;;5017361;28;20220;-69
2022/01/16 06:04:29;;;;;;;34.05;22.80;;;2.30;99.90;;;;;;5017587;28;20211;-69
2022/01/16 06:06:56;;;;;;;36.10;21.95;;;2.20;99.90;;;;;;5017512;28;20225;-69
2022/01/16 06:09:25;;;;;;;39.15;24.60;;;2.20;99.90;;;;;;5017397;28;20208;-69
2022/01/16 06:11:53;;;;;;;35.60;23.17;;;2.20;99.90;;;;;;5017291;28;20227;-69
2022/01/16 06:14:19;;;;;;;32.42;22.05;;;2.00;99.90;;;;;;5017450;28;20207;-69
2022/01/16 06:16:48;;;;;;;32.15;22.27;;;2.00;99.90;;;;;;5017579;28;20301;-69
2022/01/16 06:19:14;;;;;;;37.25;23.55;;;1.90;99.90;;;;;;5017237;28;20570;-69
2022/01/16 06:21:41;;;;;;;35.20;22.85;;;1.90;99.90;;;;;;5016991;28;20296;-68
2022/01/16 06:24:08;;;;;;;30.17;20.25;;;1.90;99.90;;;;;;5017222;28;20205;-68
2022/01/16 06:26:35;;;;;;;33.72;21.33;;;1.90;99.90;;;;;;5016944;28;20292;-69
2022/01/16 06:29:01;;;;;;;31.70;20.40;;;1.90;99.90;;;;;;5017275;28;20215;-69
2022/01/16 06:31:28;;;;;;;33.45;21.92;;;1.90;99.90;;;;;;5016751;28;20205;-69
2022/01/16 06:33:59;;;;;;;35.53;22.92;;;1.80;99.90;;;;;;5017094;28;20552;-69
2022/01/16 06:36:25;;;;;;;28.48;20.25;;;1.80;99.90;;;;;;5017069;28;20285;-69
2022/01/16 06:38:53;;;;;;;31.02;21.48;;;1.80;99.90;;;;;;5016694;28;20211;-68
2022/01/16 06:41:20;;;;;;;33.75;22.13;;;1.70;99.90;;;;;;5016666;28;20240;-69
2022/01/16 06:43:47;;;;;;;33.58;21.83;;;1.70;99.90;;;;;;5016940;28;20224;-69
2022/01/16 06:46:14;;;;;;;31.73;21.45;;;1.70;99.90;;;;;;5016741;28;20250;-69
2022/01/16 06:48:41;;;;;;;30.98;20.48;;;1.80;99.90;;;;;;5016794;28;20660;-69
2022/01/16 06:51:10;;;;;;;33.30;22.27;;;1.70;99.90;;;;;;5016345;28;20280;-69
2022/01/16 06:53:36;;;;;;;35.20;21.48;;;1.50;99.90;;;;;;5016460;28;20729;-69
2022/01/16 06:56:04;;;;;;;36.50;23.17;;;1.40;99.90;;;;;;5016761;28;20205;-69
2022/01/16 06:58:30;;;;;;;35.63;23.05;;;1.20;99.90;;;;;;5016710;28;20205;-69
2022/01/16 07:00:57;;;;;;;43.72;24.23;;;0.90;99.90;;;;;;5015189;28;20209;-68
2022/01/16 07:03:24;;;;;;;36.55;22.70;;;0.60;99.90;;;;;;5016679;28;20582;-68
2022/01/16 07:05:51;;;;;;;38.22;23.20;;;0.40;99.90;;;;;;5016419;28;20220;-69
2022/01/16 07:08:22;;;;;;;36.72;23.20;;;0.20;99.90;;;;;;5016905;28;20215;-69
2022/01/16 07:10:50;;;;;;;34.90;21.38;;;0.30;99.90;;;;;;5016217;28;20205;-69
2022/01/16 07:13:17;;;;;;;33.30;21.98;;;0.30;99.90;;;;;;5016659;28;20225;-69
2022/01/16 07:15:44;;;;;;;34.00;21.67;;;0.30;99.90;;;;;;5016320;28;20207;-68
2022/01/16 07:18:10;;;;;;;35.83;22.98;;;0.30;99.90;;;;;;5016339;28;20296;-68
2022/01/16 07:20:37;;;;;;;35.38;22.15;;;0.20;99.90;;;;;;5015986;28;20205;-69
2022/01/16 07:23:04;;;;;;;35.17;22.48;;;0.00;99.90;;;;;;5016184;28;20262;-69
2022/01/16 07:25:33;;;;;;;36.45;21.95;;;-0.10;99.90;;;;;;5016158;28;20582;-69
2022/01/16 07:28:00;;;;;;;36.35;22.58;;;-0.20;99.90;;;;;;5016053;28;20212;-68
2022/01/16 07:30:26;;;;;;;39.33;24.20;;;-0.10;99.90;;;;;;5015877;28;20240;-69
2022/01/16 07:32:53;;;;;;;37.88;23.00;;;-0.10;99.90;;;;;;5015922;28;20231;-68
2022/01/16 07:35:20;;;;;;;34.95;21.75;;;-0.10;99.90;;;;;;5015992;28;20208;-69
2022/01/16 07:37:48;;;;;;;37.80;22.98;;;0.00;99.90;;;;;;5015705;28;20619;-68
2022/01/16 07:40:15;;;;;;;34.15;22.30;;;0.10;99.90;;;;;;5015693;28;20208;-69
2022/01/16 07:42:43;;;;;;;36.00;23.85;;;0.10;99.90;;;;;;5015532;28;20232;-69
2022/01/16 07:45:11;;;;;;;39.10;23.73;;;0.10;99.90;;;;;;5016090;28;20292;-68
2022/01/16 07:47:38;;;;;;;36.65;23.00;;;0.00;99.90;;;;;;5015651;28;20204;-69
2022/01/16 07:50:06;;;;;;;39.50;22.58;;;0.00;99.90;;;;;;5015609;28;20299;-69
2022/01/16 07:52:33;;;;;;;35.17;22.10;;;0.10;99.90;;;;;;5015608;28;20312;-68
2022/01/16 07:55:00;;;;;;;32.25;21.45;;;0.20;99.90;;;;;;5015381;28;20689;-68
2022/01/16 07:57:27;;;;;;;31.27;21.60;;;0.40;99.90;;;;;;5015542;28;20208;-68
2022/01/16 07:59:55;;;;;;;38.95;22.25;;;0.40;99.90;;;;;;5015387;28;20572;-69
2022/01/16 08:02:22;;;;;;;32.85;19.05;;;0.30;99.90;;;;;;5015440;28;20778;-69
2022/01/16 08:04:49;;;;;;;38.28;22.55;;;0.40;99.90;;;;;;5015279;28;20205;-69
2022/01/16 08:07:15;;;;;;;31.30;20.70;;;0.60;99.90;;;;;;5015256;28;20315;-69
2022/01/16 08:09:43;;;;;;;34.17;23.17;;;0.60;99.90;;;;;;5015359;28;20589;-69
2022/01/16 08:12:12;;;;;;;35.38;21.88;;;0.50;99.90;;;;;;5015224;28;20236;-69
2022/01/16 08:14:39;;;;;;;35.03;22.25;;;0.40;99.90;;;;;;5015588;28;20240;-69
2022/01/16 08:17:07;;;;;;;37.95;22.80;;;0.20;99.90;;;;;;5015469;28;20293;-68
2022/01/16 08:19:34;;;;;;;33.75;21.17;;;0.20;99.90;;;;;;5015166;28;20207;-68
2022/01/16 08:22:01;;;;;;;34.80;21.75;;;0.40;99.90;;;;;;5014791;28;20589;-68
2022/01/16 08:24:28;;;;;;;34.22;23.13;;;0.50;99.90;;;;;;5015258;28;20213;-69
2022/01/16 08:26:55;;;;;;;37.33;23.48;;;0.70;99.90;;;;;;5014851;28;20320;-69
2022/01/16 08:29:22;;;;;;;42.72;24.08;;;0.80;99.90;;;;;;5015113;28;20215;-68
2022/01/16 08:31:48;;;;;;;36.83;23.13;;;0.80;99.90;;;;;;5014741;28;20220;-68
2022/01/16 08:34:17;;;;;;;32.95;21.42;;;0.80;99.90;;;;;;5015073;28;20299;-68
2022/01/16 08:36:43;;;;;;;34.75;21.20;;;1.00;99.90;;;;;;5014861;28;20295;-69
2022/01/16 08:39:10;;;;;;;35.95;22.48;;;1.20;99.90;;;;;;5015022;28;20291;-68
2022/01/16 08:41:38;;;;;;;36.72;23.67;;;1.30;99.90;;;;;;5014253;28;20217;-69
2022/01/16 08:44:06;;;;;;;31.92;21.00;;;1.50;99.90;;;;;;5014792;28;20193;-69
2022/01/16 08:46:33;;;;;;;34.92;22.17;;;1.60;99.90;;;;;;5014689;28;20225;-68
2022/01/16 08:49:00;;;;;;;40.70;25.00;;;1.40;99.90;;;;;;5014606;28;20214;-69
2022/01/16 08:51:28;;;;;;;36.95;23.80;;;1.30;99.90;;;;;;5014493;28;20213;-68
2022/01/16 08:53:55;;;;;;;37.75;22.67;;;1.20;99.90;;;;;;5014552;28;20207;-68
2022/01/16 08:56:22;;;;;;;39.50;24.02;;;1.30;99.90;;;;;;5014579;28;20291;-69
2022/01/16 08:58:49;;;;;;;33.35;22.27;;;1.50;99.90;;;;;;5014459;28;20284;-69
2022/01/16 09:01:16;;;;;;;38.45;25.00;;;1.80;99.90;;;;;;5014375;28;20209;-68
2022/01/16 09:03:43;;;;;;;37.72;23.30;;;1.90;99.90;;;;;;5014106;28;20231;-67
2022/01/16 09:06:10;;;;;;;34.10;23.48;;;2.00;99.90;;;;;;5014330;28;20310;-69
2022/01/16 09:08:38;;;;;;;34.35;23.33;;;2.00;99.90;;;;;;5014179;28;20200;-69
2022/01/16 09:11:05;;;;;;;35.10;22.65;;;2.10;99.90;;;;;;5014143;28;20303;-68
2022/01/16 09:13:32;;;;;;;39.65;25.33;;;2.10;99.90;;;;;;5014078;28;20237;-69
2022/01/16 09:15:59;;;;;;;34.75;23.33;;;2.00;99.90;;;;;;5014203;28;20563;-69
2022/01/16 09:18:26;;;;;;;37.80;25.10;;;2.00;99.90;;;;;;5014411;28;20205;-68
2022/01/16 09:20:53;;;;;;;37.55;24.98;;;2.00;99.90;;;;;;5014431;28;20232;-69
2022/01/16 09:23:20;;;;;;;40.20;24.33;;;2.10;99.90;;;;;;5013379;28;20311;-69
2022/01/16 09:25:48;;;;;;;41.03;25.48;;;2.10;99.90;;;;;;5014182;28;20219;-69
2022/01/16 09:28:15;;;;;;;39.38;24.88;;;2.10;99.90;;;;;;5014159;28;20219;-69
2022/01/16 09:30:42;;;;;;;36.45;23.58;;;2.10;99.90;;;;;;5013859;28;20205;-69
2022/01/16 09:33:09;;;;;;;35.90;23.20;;;2.10;99.90;;;;;;5013932;28;20278;-69
2022/01/16 09:35:36;;;;;;;39.47;25.42;;;2.20;99.90;;;;;;5013940;28;20569;-68
2022/01/16 09:38:04;;;;;;;38.42;27.38;;;2.30;99.90;;;;;;5014140;28;20540;-69
2022/01/16 09:40:31;;;;;;;37.25;24.60;;;2.50;99.90;;;;;;5013817;28;20210;-69
2022/01/16 09:42:59;;;;;;;34.28;22.83;;;2.60;99.90;;;;;;5013558;28;20604;-69
2022/01/16 09:45:26;;;;;;;34.63;22.52;;;2.70;99.90;;;;;;5014114;28;20200;-69
2022/01/16 09:47:53;;;;;;;34.63;23.17;;;2.80;99.90;;;;;;5013795;28;20256;-68
2022/01/16 09:50:23;;;;;;;34.42;23.58;;;3.00;99.90;;;;;;5013447;28;20209;-69
2022/01/16 09:52:51;;;;;;;34.53;23.85;;;3.00;99.90;;;;;;5013917;28;20294;-69
2022/01/16 09:55:20;;;;;;;36.35;23.58;;;3.00;99.90;;;;;;5013964;28;20205;-69
2022/01/16 09:57:47;;;;;;;33.15;22.77;;;3.00;99.90;;;;;;5013872;28;20299;-69
2022/01/16 10:00:17;;;;;;;34.67;22.55;;;3.10;99.90;;;;;;5013470;28;20578;-69
2022/01/16 10:02:44;;;;;;;30.95;22.90;;;3.10;99.90;;;;;;5013605;28;20228;-69
2022/01/16 10:05:26;;;;;;;34.78;23.13;;;3.10;99.90;;;;;;5013939;28;20231;-69
2022/01/16 10:07:54;;;;;;;33.85;23.08;;;3.20;99.90;;;;;;5013708;28;20234;-69
2022/01/16 10:10:21;;;;;;;35.78;24.13;;;3.30;99.90;;;;;;5013573;28;20239;-69
2022/01/16 10:12:51;;;;;;;35.17;23.45;;;3.10;99.90;;;;;;5013587;28;20225;-69
2022/01/16 10:15:21;;;;;;;39.47;25.40;;;2.90;99.90;;;;;;5013812;28;20193;-69
2022/01/16 10:17:50;;;;;;;39.67;26.17;;;2.80;99.90;;;;;;5013833;28;20205;-69
2022/01/16 10:20:17;;;;;;;39.80;26.38;;;2.60;99.90;;;;;;5013391;28;20290;-68
2022/01/16 10:22:45;;;;;;;38.53;25.60;;;2.60;99.90;;;;;;5013428;28;20711;-69
2022/01/16 10:25:15;;;;;;;35.30;25.85;;;2.50;99.90;;;;;;5013561;28;20205;-69
2022/01/16 10:27:43;;;;;;;39.72;25.63;;;2.50;99.90;;;;;;5013524;28;20227;-69
2022/01/16 10:30:14;;;;;;;38.05;24.42;;;2.70;99.90;;;;;;5013310;28;20205;-69
2022/01/16 10:32:43;;;;;;;39.20;25.55;;;2.90;99.90;;;;;;5013706;28;20231;-69
2022/01/16 10:35:14;;;;;;;32.72;24.08;;;3.10;99.90;;;;;;5015833;28;20581;-69
2022/01/16 10:37:43;;;;;;;36.05;25.05;;;3.30;99.90;;;;;;5017147;28;20201;-69
2022/01/16 10:40:14;;;;;;;36.85;25.73;;;3.40;99.90;;;;;;5016821;28;20232;-69
2022/01/16 10:42:41;;;;;;;35.10;24.90;;;3.40;99.90;;;;;;5016703;28;20254;-69
2022/01/16 10:45:11;;;;;;;35.90;23.98;;;3.50;99.90;;;;;;5016936;28;20215;-69
2022/01/16 10:47:41;;;;;;;32.78;23.83;;;3.70;99.90;;;;;;5016818;28;20590;-69
2022/01/16 10:50:15;;;;;;;37.97;25.05;;;3.80;99.90;;;;;;5016807;28;20212;-69
2022/01/16 10:52:57;;;;;;;37.80;25.13;;;4.10;99.90;;;;;;5016861;28;20673;-69
2022/01/16 10:55:32;;;;;;;35.28;24.02;;;3.90;99.90;;;;;;5016838;28;20209;-69
2022/01/16 10:58:06;;;;;;;35.58;25.55;;;3.90;99.90;;;;;;5017032;28;20201;-69
2022/01/16 11:00:33;;;;;;;37.30;25.02;;;3.70;99.90;;;;;;5016555;28;20244;-69
2022/01/16 11:03:02;;;;;;;34.78;23.60;;;3.60;99.90;;;;;;5016429;28;20311;-69
2022/01/16 11:05:34;;;;;;;37.83;25.25;;;3.60;99.90;;;;;;5016688;28;20283;-69
2022/01/16 11:08:03;;;;;;;33.72;24.88;;;3.50;99.90;;;;;;5017353;28;20224;-69
2022/01/16 11:10:32;;;;;;;34.35;24.65;;;3.70;99.90;;;;;;5016429;28;20578;-69
2022/01/16 11:13:01;;;;;;;36.15;24.25;;;3.60;99.90;;;;;;5016242;28;20321;-68
2022/01/16 11:15:29;;;;;;;35.08;23.83;;;3.70;99.90;;;;;;5016534;28;20201;-69
2022/01/16 11:17:56;;;;;;;37.22;24.40;;;3.80;99.90;;;;;;5016478;28;20553;-69
2022/01/16 11:20:29;;;;;;;32.58;24.05;;;3.80;99.90;;;;;;5016360;28;20590;-69
2022/01/16 11:23:14;;;;;;;33.38;23.15;;;3.90;99.90;;;;;;5016513;28;20323;-69
2022/01/16 11:25:41;;;;;;;33.15;24.52;;;3.90;99.90;;;;;;5016374;28;20201;-69
2022/01/16 11:28:11;;;;;;;33.03;24.00;;;4.00;99.90;;;;;;5016249;28;20316;-69
2022/01/16 11:30:41;;;;;;;33.90;24.40;;;4.10;99.90;;;;;;5015753;28;20738;-69
2022/01/16 11:33:08;;;;;;;33.25;24.25;;;4.20;99.90;;;;;;5015800;28;20726;-69
2022/01/16 11:35:41;;;;;;;40.80;26.45;;;4.40;99.90;;;;;;5016027;28;20205;-69
2022/01/16 11:38:10;;;;;;;37.63;27.52;;;4.50;99.90;;;;;;5015934;28;20204;-69
2022/01/16 11:40:45;;;;;;;37.83;26.63;;;4.40;99.90;;;;;;5015601;28;20216;-69
2022/01/16 11:43:30;;;;;;;35.35;25.50;;;4.20;99.90;;;;;;5015624;28;20232;-69
2022/01/16 11:46:08;;;;;;;35.65;26.45;;;4.20;99.90;;;;;;5015290;28;20269;-69
2022/01/16 11:48:38;;;;;;;36.25;26.52;;;4.30;99.90;;;;;;5015749;28;20228;-69
2022/01/16 11:51:06;;;;;;;37.22;26.95;;;4.30;99.90;;;;;;5015351;28;20209;-68
2022/01/16 11:54:10;;;;;;;37.88;26.02;;;4.20;99.90;;;;;;5015361;28;20316;-69
2022/01/16 11:56:50;;;;;;;39.92;29.08;;;4.20;99.90;;;;;;5015620;28;20208;-69
2022/01/16 11:59:21;;;;;;;41.58;28.20;;;3.80;99.90;;;;;;5015562;28;20205;-69
2022/01/16 12:01:50;;;;;;;43.65;27.95;;;3.70;99.90;;;;;;5015351;28;20240;-68
2022/01/16 12:04:59;;;;;;;41.08;28.80;;;3.60;99.90;;;;;;5015364;28;20685;-69
2022/01/16 12:07:50;;;;;;;39.00;26.58;;;3.70;99.90;;;;;;5015321;28;20230;-68
2022/01/16 12:10:50;;;;;;;38.35;24.45;;;3.50;99.90;;;;;;5015527;28;20237;-69
2022/01/16 12:13:48;;;;;;;37.63;24.80;;;3.40;99.90;;;;;;5015358;28;20311;-69
2022/01/16 12:16:53;;;;;;;41.25;25.38;;;3.50;99.90;;;;;;5015264;28;20209;-69
2022/01/16 12:19:45;;;;;;;38.72;24.20;;;3.50;99.90;;;;;;5015186;28;20208;-68
2022/01/16 12:22:43;;;;;;;41.60;24.50;;;3.60;99.90;;;;;;5015017;28;20730;-69
2022/01/16 12:25:17;;;;;;;33.90;17.42;;;3.70;99.90;;;;;;5015257;28;20259;-69
2022/01/16 12:27:50;;;;;;;36.97;23.13;;;3.90;99.90;;;;;;5015176;28;20227;-69
2022/01/16 12:30:38;;;;;;;37.42;23.02;;;3.80;99.90;;;;;;5014841;28;20295;-69
2022/01/16 12:33:11;;;;;;;38.83;23.63;;;3.90;99.90;;;;;;5015122;28;20599;-69
2022/01/16 12:36:12;;;;;;;35.08;21.30;;;4.00;99.90;;;;;;5014969;28;20211;-68
2022/01/16 12:38:55;;;;;;;25.02;14.93;;;4.00;99.90;;;;;;5014917;28;20227;-69
2022/01/16 12:41:28;;;;;;;32.65;19.80;;;4.00;99.90;;;;;;5013495;28;20325;-69
2022/01/16 12:43:59;;;;;;;28.60;17.08;;;4.10;99.90;;;;;;5014885;28;20565;-68
2022/01/16 12:46:30;;;;;;;17.50;11.80;;;4.10;99.90;;;;;;5014640;28;20205;-69
2022/01/16 12:49:02;;;;;;;26.92;17.77;;;4.20;99.90;;;;;;5014396;28;20237;-68
2022/01/16 12:51:31;;;;;;;19.92;14.50;;;4.20;99.90;;;;;;5014060;28;20205;-69
2022/01/16 12:54:02;;;;;;;22.80;14.90;;;4.30;99.90;;;;;;5014456;28;20240;-69
2022/01/16 12:56:32;;;;;;;20.15;12.20;;;4.40;99.90;;;;;;5014413;28;20251;-69
2022/01/16 12:59:11;;;;;;;19.70;12.70;;;4.50;99.90;;;;;;5013494;28;20541;-68
2022/01/16 13:01:42;;;;;;;18.55;12.63;;;4.50;99.90;;;;;;5014203;28;20204;-69
2022/01/16 13:04:21;;;;;;;17.52;11.13;;;4.60;99.90;;;;;;5014516;28;21093;-69
2022/01/16 13:06:47;;;;;;;19.73;11.90;;;4.70;99.90;;;;;;5014418;28;20205;-69
2022/01/16 13:09:15;;;;;;;19.13;11.70;;;4.70;99.90;;;;;;5014418;28;20215;-69
2022/01/16 13:11:44;;;;;;;18.48;12.60;;;4.80;99.90;;;;;;5014286;28;20215;-69
2022/01/16 13:14:15;;;;;;;15.70;9.18;;;4.80;99.90;;;;;;5014228;28;20204;-69
2022/01/16 13:16:45;;;;;;;17.38;11.10;;;4.70;99.90;;;;;;5014463;28;20205;-69
2022/01/16 13:19:16;;;;;;;17.13;11.77;;;4.70;99.90;;;;;;5014470;28;20213;-69
2022/01/16 13:21:59;;;;;;;17.40;12.23;;;4.70;99.90;;;;;;5014146;28;20212;-69